EDLI 230903Z 22008KT 9999 ///034 17/12 Q1015

Wind aktuell: 220° mit 9 kt

Wind 10 Minuten extrem:

170° bis 260° mit 5 kt bis 13 kt

Seitenwindkomponente: 8.5 kt

Wolkengrenze 1: 3500

Wolkengrenze 2: keine

Wolkengrenze 3: keine

Sichtweite: 20.000 Meter

Vorheriges Wetter:

Aktuelles Wetter:

Druckhöhe: 400 ft

Dichtehöhe: 868 ft

Temperatur: 18.1 °C

Taupunkt: 12.7 °C

Luftfeuchtigkeit: 70%

QNH: 1015 hPa 

QFE: 998 hPa

Diese Daten werden automatisch ermittelt bzw. übertragen und sind nicht geprüft. Für die Richtigkeit wird daher keine Gewähr übernommen. Sie ersetzen im übrigen nicht die Flugwetterberatung. Alle Zeitangaben beziehen sich auf UTC. Die Seite wird einmal die Minute aktualisiert! Sollten Sie ein ältere Seite haben, so drücken Sie bitte auf den Reload Button Ihres Browsers!